Time;durP1;ratioP1;P1;durP2;ratioP2;P2;SDS_P1;SDS_P2;PMS_P1;PMS_P2;Temp;Humidity;BMP_temperature;BMP_pressure;BME280_temperature;BME280_humidity;BME280_pressure;Samples;Min_cycle;Max_cycle;Signal;HPM_P1;HPM_P2
2024/03/31 00:01:39;;;;;;;19.23;7.63;;;9.60;99.90;;;;;;5026586;28;20429;-76
2024/03/31 00:04:25;;;;;;;20.93;7.27;;;9.70;99.90;;;;;;5022072;28;20537;-76
2024/03/31 00:07:11;;;;;;;21.03;6.90;;;9.70;99.90;;;;;;5026399;28;20969;-76
2024/03/31 00:09:56;;;;;;;26.30;8.13;;;9.80;99.90;;;;;;5022271;28;20471;-75
2024/03/31 00:12:44;;;;;;;26.10;7.60;;;9.70;99.90;;;;;;5022947;28;20786;-76
2024/03/31 00:15:30;;;;;;;22.17;8.50;;;9.60;99.90;;;;;;5018808;28;21506;-76
2024/03/31 00:18:16;;;;;;;19.03;6.93;;;9.70;99.90;;;;;;5021640;28;20542;-76
2024/03/31 00:21:01;;;;;;;22.73;8.00;;;9.60;99.90;;;;;;5028807;28;20548;-76
2024/03/31 00:23:47;;;;;;;18.53;7.70;;;9.60;99.90;;;;;;5028634;28;20496;-76
2024/03/31 00:26:32;;;;;;;28.33;7.90;;;9.60;99.90;;;;;;5023991;28;21043;-76
2024/03/31 00:29:17;;;;;;;24.57;9.60;;;9.70;99.90;;;;;;5028905;28;20474;-76
2024/03/31 00:32:04;;;;;;;32.53;8.73;;;9.70;99.90;;;;;;5027373;28;20426;-76
2024/03/31 00:34:50;;;;;;;17.90;7.87;;;9.70;99.90;;;;;;5026099;28;20468;-76
2024/03/31 00:37:35;;;;;;;19.73;8.20;;;9.70;99.90;;;;;;5026100;28;20450;-75
2024/03/31 00:40:21;;;;;;;25.70;7.90;;;9.80;99.90;;;;;;5026319;28;20474;-76
2024/03/31 00:43:05;;;;;;;21.60;8.87;;;9.80;99.90;;;;;;5026010;28;20462;-76
2024/03/31 00:45:51;;;;;;;20.73;7.80;;;9.80;99.90;;;;;;5030954;28;20560;-76
2024/03/31 00:48:37;;;;;;;17.23;8.40;;;9.70;99.90;;;;;;5027378;28;20557;-76
2024/03/31 00:51:22;;;;;;;22.93;8.47;;;9.80;99.90;;;;;;5025544;28;20496;-76
2024/03/31 00:54:07;;;;;;;16.70;8.33;;;9.80;99.90;;;;;;5024855;28;20957;-76
2024/03/31 00:56:53;;;;;;;24.83;5.33;;;9.80;99.90;;;;;;5031192;28;20457;-75
2024/03/31 00:59:37;;;;;;;22.57;6.17;;;9.80;99.90;;;;;;5029389;28;20486;-76
2024/03/31 01:02:25;;;;;;;23.87;6.10;;;9.80;99.90;;;;;;5027041;28;20597;-76
2024/03/31 01:05:11;;;;;;;19.70;5.10;;;9.90;99.90;;;;;;5023736;28;20506;-76
2024/03/31 01:07:57;;;;;;;21.80;7.37;;;10.00;99.90;;;;;;5030239;28;20823;-76
2024/03/31 01:10:42;;;;;;;27.63;5.50;;;10.00;99.90;;;;;;5028506;28;20477;-76
2024/03/31 01:13:28;;;;;;;18.33;5.50;;;10.00;99.90;;;;;;5028729;28;20467;-76
2024/03/31 01:16:13;;;;;;;17.13;5.73;;;10.00;99.90;;;;;;5021909;28;20503;-76
2024/03/31 01:18:59;;;;;;;14.73;5.10;;;10.00;99.90;;;;;;5022997;28;20502;-76
2024/03/31 01:21:45;;;;;;;13.93;4.90;;;10.10;99.90;;;;;;5025568;28;20458;-76
2024/03/31 01:24:32;;;;;;;13.63;5.37;;;10.10;99.90;;;;;;5027401;28;20470;-76
2024/03/31 01:27:17;;;;;;;24.20;7.53;;;10.10;99.90;;;;;;5027160;28;20952;-75
2024/03/31 01:30:02;;;;;;;23.67;5.23;;;10.00;99.90;;;;;;5033680;28;20980;-75
2024/03/31 01:32:47;;;;;;;19.90;5.93;;;10.00;99.90;;;;;;5027599;28;20451;-75
2024/03/31 01:35:34;;;;;;;15.83;5.80;;;9.90;99.90;;;;;;5024385;28;20442;-75
2024/03/31 01:38:18;;;;;;;17.53;5.63;;;10.00;99.90;;;;;;5026836;28;20812;-75
2024/03/31 01:41:05;;;;;;;17.20;6.03;;;10.00;99.90;;;;;;5025170;28;20474;-75
2024/03/31 01:43:50;;;;;;;13.50;4.87;;;10.10;99.90;;;;;;5024610;28;20461;-75
2024/03/31 01:46:36;;;;;;;16.70;4.53;;;10.10;99.90;;;;;;5027707;28;20527;-75
2024/03/31 01:49:21;;;;;;;11.27;4.93;;;10.00;99.90;;;;;;5030502;28;20463;-76
2024/03/31 01:52:06;;;;;;;12.83;5.70;;;10.00;99.90;;;;;;5029153;28;20966;-76
2024/03/31 01:54:51;;;;;;;22.50;6.37;;;10.00;99.90;;;;;;5025612;28;20467;-76
2024/03/31 01:57:38;;;;;;;19.10;4.60;;;10.00;99.90;;;;;;5027032;28;20583;-75
2024/03/31 02:00:23;;;;;;;14.00;5.00;;;10.00;99.90;;;;;;5029709;28;20459;-76
2024/03/31 02:03:08;;;;;;;19.03;5.53;;;10.00;99.90;;;;;;5028228;28;20446;-76
2024/03/31 02:05:54;;;;;;;17.33;4.60;;;10.00;99.90;;;;;;5030046;28;21022;-76
2024/03/31 02:08:38;;;;;;;9.50;5.23;;;10.00;99.90;;;;;;5024673;28;20434;-76
2024/03/31 02:11:24;;;;;;;15.43;5.00;;;10.00;99.90;;;;;;5024805;28;20950;-76
2024/03/31 02:14:10;;;;;;;14.97;3.90;;;10.10;99.90;;;;;;5018215;28;20528;-76
2024/03/31 02:16:56;;;;;;;11.40;4.50;;;10.10;99.90;;;;;;5022492;28;20474;-76
2024/03/31 02:19:41;;;;;;;24.03;5.63;;;10.10;99.90;;;;;;5025762;28;20566;-76
2024/03/31 02:22:27;;;;;;;20.20;5.40;;;10.10;99.90;;;;;;5026259;28;20500;-76
2024/03/31 02:25:11;;;;;;;24.37;5.77;;;10.10;99.90;;;;;;5028058;28;20545;-76
2024/03/31 02:27:57;;;;;;;9.57;4.90;;;10.00;99.90;;;;;;5028292;28;20447;-76
2024/03/31 02:30:43;;;;;;;12.00;4.63;;;10.00;99.90;;;;;;5025638;28;20454;-76
2024/03/31 02:33:28;;;;;;;11.27;4.57;;;10.00;99.90;;;;;;5027143;28;20465;-76
2024/03/31 02:36:13;;;;;;;13.93;4.50;;;10.00;99.90;;;;;;5030602;28;20417;-76
2024/03/31 02:38:59;;;;;;;14.93;4.10;;;10.00;99.90;;;;;;5028590;28;20416;-76
2024/03/31 02:41:44;;;;;;;18.53;5.07;;;10.00;99.90;;;;;;5026186;28;20430;-76
2024/03/31 02:44:30;;;;;;;15.03;5.67;;;10.00;99.90;;;;;;5025689;28;20501;-76
2024/03/31 02:47:16;;;;;;;16.00;4.20;;;10.00;99.90;;;;;;5029038;28;20443;-76
2024/03/31 02:50:02;;;;;;;17.87;5.30;;;10.00;99.90;;;;;;5025235;28;20939;-75
2024/03/31 02:52:46;;;;;;;12.67;4.90;;;10.00;99.90;;;;;;5032126;28;20465;-76
2024/03/31 02:55:32;;;;;;;19.00;5.50;;;10.00;99.90;;;;;;5023332;28;20465;-76
2024/03/31 02:58:16;;;;;;;15.70;4.73;;;10.10;99.90;;;;;;5025986;28;20458;-76
2024/03/31 03:01:06;;;;;;;13.50;5.03;;;10.10;99.90;;;;;;5060760;22;20483;-73
2024/03/31 03:03:52;;;;;;;12.10;5.47;;;10.00;99.90;;;;;;5044600;28;20860;-74
2024/03/31 03:06:37;;;;;;;22.33;6.07;;;10.00;99.90;;;;;;5047304;28;20466;-72
2024/03/31 03:09:22;;;;;;;16.33;5.53;;;10.10;99.90;;;;;;5048978;28;21341;-72
2024/03/31 03:12:08;;;;;;;14.17;5.73;;;10.00;99.90;;;;;;5048094;28;20572;-72
2024/03/31 03:14:53;;;;;;;20.10;5.83;;;10.00;99.90;;;;;;5044758;28;20420;-72
2024/03/31 03:17:39;;;;;;;20.47;7.50;;;10.10;99.90;;;;;;5044636;28;20525;-74
2024/03/31 03:20:25;;;;;;;20.70;6.80;;;10.10;99.90;;;;;;5043749;28;20456;-74
2024/03/31 03:23:10;;;;;;;21.43;6.70;;;10.10;99.90;;;;;;5047296;28;20469;-73
2024/03/31 03:25:55;;;;;;;11.87;5.73;;;10.20;99.90;;;;;;5047404;28;20950;-74
2024/03/31 03:28:41;;;;;;;16.27;5.80;;;10.20;99.90;;;;;;5047446;28;20454;-74
2024/03/31 03:31:26;;;;;;;16.47;6.50;;;10.20;99.90;;;;;;5044454;28;20475;-74
2024/03/31 03:34:11;;;;;;;17.60;5.40;;;10.20;99.90;;;;;;5044378;28;20421;-74
2024/03/31 03:36:58;;;;;;;14.30;4.87;;;10.20;99.90;;;;;;5047285;28;20483;-74
2024/03/31 03:39:44;;;;;;;15.90;6.13;;;10.10;99.90;;;;;;5045361;28;20485;-74
2024/03/31 03:42:30;;;;;;;20.83;6.53;;;10.10;99.90;;;;;;5042191;28;21076;-74
2024/03/31 03:45:15;;;;;;;19.27;7.20;;;10.10;99.90;;;;;;5040692;28;20460;-74
2024/03/31 03:48:00;;;;;;;25.83;7.27;;;10.00;99.90;;;;;;5041318;28;20465;-74
2024/03/31 03:50:46;;;;;;;15.73;7.33;;;10.00;99.90;;;;;;5036813;28;21065;-74
2024/03/31 03:53:32;;;;;;;13.43;6.77;;;10.00;99.90;;;;;;5036502;28;20932;-74
2024/03/31 03:56:17;;;;;;;26.90;8.27;;;10.10;99.90;;;;;;5038496;28;20497;-73
2024/03/31 03:59:02;;;;;;;18.97;6.90;;;10.10;99.90;;;;;;5041846;28;20494;-74
2024/03/31 04:01:47;;;;;;;11.70;6.20;;;10.10;99.90;;;;;;5040124;28;20787;-74
2024/03/31 04:04:32;;;;;;;28.10;8.00;;;10.10;99.90;;;;;;5036136;28;20454;-74
2024/03/31 04:07:17;;;;;;;13.90;8.10;;;10.10;99.90;;;;;;5034701;28;20476;-73
2024/03/31 04:10:04;;;;;;;18.40;7.40;;;10.10;99.90;;;;;;5038909;28;20947;-73
2024/03/31 04:12:50;;;;;;;13.40;6.93;;;10.10;99.90;;;;;;5037623;28;20602;-74
2024/03/31 04:15:34;;;;;;;19.23;7.97;;;10.10;99.90;;;;;;5039262;28;20495;-74
2024/03/31 04:18:20;;;;;;;15.70;8.20;;;10.10;99.90;;;;;;5036708;28;20495;-74
2024/03/31 04:21:07;;;;;;;11.40;6.50;;;10.10;99.90;;;;;;5038114;28;20495;-74
2024/03/31 04:23:54;;;;;;;24.07;7.30;;;10.00;99.90;;;;;;5043068;28;20518;-74
2024/03/31 04:26:40;;;;;;;16.97;6.93;;;10.10;99.90;;;;;;5037610;28;20576;-74
2024/03/31 04:29:25;;;;;;;19.03;8.80;;;10.00;99.90;;;;;;5037228;28;20984;-73
2024/03/31 04:32:10;;;;;;;12.03;6.60;;;10.00;99.90;;;;;;5042573;28;20564;-75
2024/03/31 04:34:56;;;;;;;16.73;7.10;;;9.90;99.90;;;;;;5038427;28;20504;-74
2024/03/31 04:37:41;;;;;;;16.63;7.60;;;9.90;99.90;;;;;;5039791;28;20466;-74
2024/03/31 04:40:27;;;;;;;22.20;9.30;;;9.90;99.90;;;;;;5037794;28;20509;-72
2024/03/31 04:43:12;;;;;;;16.33;7.43;;;9.90;99.90;;;;;;5036065;28;20442;-74
2024/03/31 04:46:02;;;;;;;13.63;7.07;;;9.90;99.90;;;;;;5042508;28;20477;-74
2024/03/31 04:48:47;;;;;;;19.70;6.53;;;9.90;99.90;;;;;;5036606;28;20464;-73
2024/03/31 04:51:32;;;;;;;20.27;8.10;;;9.80;99.90;;;;;;5037314;28;20487;-74
2024/03/31 04:54:19;;;;;;;24.13;7.57;;;9.70;99.90;;;;;;5041672;28;20554;-74
2024/03/31 04:57:05;;;;;;;15.20;7.63;;;9.70;99.90;;;;;;5037244;28;20499;-74
2024/03/31 04:59:51;;;;;;;16.03;9.37;;;9.60;99.90;;;;;;5038432;28;20547;-74
2024/03/31 05:02:37;;;;;;;20.67;8.27;;;9.60;99.90;;;;;;5038159;28;20453;-75
2024/03/31 05:05:21;;;;;;;14.40;7.77;;;9.60;99.90;;;;;;5038927;28;20470;-73
2024/03/31 05:08:07;;;;;;;15.07;8.00;;;9.50;99.90;;;;;;5043119;28;20806;-74
2024/03/31 05:10:56;;;;;;;15.47;8.07;;;9.40;99.90;;;;;;5042061;28;20472;-73
2024/03/31 05:13:42;;;;;;;16.27;7.47;;;9.50;99.90;;;;;;5045999;28;20592;-74
2024/03/31 05:16:28;;;;;;;21.47;8.87;;;9.50;99.90;;;;;;5044402;28;20814;-74
2024/03/31 05:19:14;;;;;;;16.13;7.80;;;9.50;99.90;;;;;;5045064;28;20449;-74
2024/03/31 05:21:59;;;;;;;12.87;7.97;;;9.50;99.90;;;;;;5041643;28;20971;-74
2024/03/31 05:24:45;;;;;;;16.80;7.40;;;9.60;99.90;;;;;;5042358;28;20511;-74
2024/03/31 05:27:29;;;;;;;13.07;7.53;;;9.60;99.90;;;;;;5042277;28;20520;-74
2024/03/31 05:30:15;;;;;;;11.53;7.20;;;9.60;99.90;;;;;;5037821;28;20996;-73
2024/03/31 05:33:01;;;;;;;14.63;8.70;;;9.60;99.90;;;;;;5044786;28;20503;-74
2024/03/31 05:35:47;;;;;;;21.40;8.27;;;9.60;99.90;;;;;;5045882;28;21227;-74
2024/03/31 05:38:32;;;;;;;9.30;7.10;;;9.60;99.90;;;;;;5035748;28;20946;-74
2024/03/31 05:41:18;;;;;;;16.40;8.57;;;9.70;99.90;;;;;;5043039;28;20540;-74
2024/03/31 05:44:02;;;;;;;15.77;10.00;;;9.70;99.90;;;;;;5042125;28;20442;-74
2024/03/31 05:46:48;;;;;;;10.60;8.27;;;9.80;99.90;;;;;;5045621;28;20473;-73
2024/03/31 05:49:34;;;;;;;17.73;7.80;;;9.80;99.90;;;;;;5043176;28;20454;-74
2024/03/31 05:52:19;;;;;;;16.73;8.30;;;9.80;99.90;;;;;;5039354;28;20531;-73
2024/03/31 05:55:04;;;;;;;18.30;8.60;;;9.80;99.90;;;;;;5042365;28;20469;-74
2024/03/31 05:57:50;;;;;;;14.80;9.13;;;9.80;99.90;;;;;;5042522;28;20834;-74
2024/03/31 06:00:35;;;;;;;17.90;10.77;;;9.90;99.90;;;;;;5042904;28;20495;-74
2024/03/31 06:03:20;;;;;;;20.13;8.77;;;10.00;99.90;;;;;;5038871;28;20421;-74
2024/03/31 06:06:06;;;;;;;19.03;9.30;;;10.00;99.90;;;;;;5045642;28;20475;-73
2024/03/31 06:08:52;;;;;;;19.27;9.23;;;10.10;99.90;;;;;;5042525;28;20466;-73
2024/03/31 06:11:37;;;;;;;17.40;8.50;;;10.20;99.90;;;;;;5042970;28;20461;-74
2024/03/31 06:14:22;;;;;;;12.03;8.23;;;10.20;99.90;;;;;;5041577;28;20482;-74
2024/03/31 06:17:07;;;;;;;13.47;8.97;;;10.20;99.90;;;;;;5042801;28;20529;-74
2024/03/31 06:19:53;;;;;;;16.80;8.50;;;10.30;99.90;;;;;;5042150;28;20525;-74
2024/03/31 06:22:40;;;;;;;13.23;8.57;;;10.30;99.90;;;;;;5046034;28;20429;-73
2024/03/31 06:25:25;;;;;;;18.37;9.90;;;10.30;99.90;;;;;;5042361;28;20719;-74
2024/03/31 06:28:10;;;;;;;12.70;7.80;;;10.30;99.90;;;;;;5041687;28;20437;-74
2024/03/31 06:30:56;;;;;;;25.57;10.47;;;10.40;99.90;;;;;;5037752;28;21011;-74
2024/03/31 06:33:43;;;;;;;13.20;8.93;;;10.40;99.90;;;;;;5041758;28;20433;-74
2024/03/31 06:36:29;;;;;;;26.17;9.57;;;10.40;99.90;;;;;;5040107;28;20454;-74
2024/03/31 06:39:15;;;;;;;24.13;8.90;;;10.50;99.90;;;;;;5045239;28;20440;-74
2024/03/31 06:42:00;;;;;;;18.60;10.20;;;10.40;99.90;;;;;;5042357;28;20594;-74
2024/03/31 06:44:45;;;;;;;24.10;9.57;;;10.40;99.90;;;;;;5044558;28;20462;-74
2024/03/31 06:47:30;;;;;;;19.30;9.13;;;10.50;99.90;;;;;;5041883;28;20478;-74
2024/03/31 06:50:15;;;;;;;17.40;10.30;;;10.70;99.90;;;;;;5040902;28;20477;-74
2024/03/31 06:53:01;;;;;;;17.07;9.70;;;10.80;99.90;;;;;;5042079;28;20546;-74
2024/03/31 06:55:47;;;;;;;13.83;9.20;;;11.00;99.90;;;;;;5042272;28;20589;-74
2024/03/31 06:58:32;;;;;;;17.57;10.00;;;11.00;99.90;;;;;;5039477;28;22314;-75
2024/03/31 07:01:17;;;;;;;24.53;9.20;;;11.20;99.90;;;;;;5043012;28;20478;-74
2024/03/31 07:04:03;;;;;;;32.23;8.87;;;11.30;99.90;;;;;;5039214;28;20491;-74
2024/03/31 07:06:49;;;;;;;23.33;10.00;;;11.40;99.90;;;;;;5043628;28;20452;-74
2024/03/31 07:09:35;;;;;;;26.03;11.80;;;11.60;99.90;;;;;;5043342;28;20477;-74
2024/03/31 07:12:21;;;;;;;35.73;10.90;;;11.70;99.90;;;;;;5040804;28;20455;-74
2024/03/31 07:15:07;;;;;;;28.13;10.77;;;11.80;99.90;;;;;;5038179;28;20784;-74
2024/03/31 07:17:52;;;;;;;27.40;9.60;;;11.90;99.90;;;;;;5038452;28;20503;-74
2024/03/31 07:20:37;;;;;;;33.13;10.37;;;12.00;99.90;;;;;;5043870;28;20543;-74
2024/03/31 07:23:23;;;;;;;33.53;9.63;;;12.00;99.90;;;;;;5042191;28;20448;-74
2024/03/31 07:26:07;;;;;;;18.80;8.40;;;12.10;99.90;;;;;;5040735;28;20448;-73
2024/03/31 07:28:55;;;;;;;22.03;8.53;;;12.10;99.90;;;;;;5040956;28;20915;-74
2024/03/31 07:31:40;;;;;;;26.20;8.10;;;12.20;99.90;;;;;;5041951;28;20425;-74
2024/03/31 07:34:26;;;;;;;23.77;8.33;;;12.20;99.90;;;;;;5041984;28;21008;-73
2024/03/31 07:37:11;;;;;;;35.03;9.77;;;12.30;99.90;;;;;;5046221;28;20531;-74
2024/03/31 07:39:56;;;;;;;23.37;7.83;;;12.30;99.90;;;;;;5042172;28;20449;-74
2024/03/31 07:42:42;;;;;;;20.60;6.70;;;12.40;99.90;;;;;;5040012;28;20720;-74
2024/03/31 07:45:28;;;;;;;23.47;7.27;;;12.50;99.90;;;;;;5036778;28;20947;-74
2024/03/31 07:48:13;;;;;;;22.37;6.17;;;12.60;99.90;;;;;;5040910;28;20454;-74
2024/03/31 07:50:57;;;;;;;22.07;5.07;;;12.70;99.90;;;;;;5043885;28;20828;-74
2024/03/31 07:53:44;;;;;;;27.80;5.00;;;12.80;99.90;;;;;;5048321;28;20797;-74
2024/03/31 07:56:28;;;;;;;14.97;3.50;;;12.90;99.90;;;;;;5037650;28;20999;-74
2024/03/31 07:59:14;;;;;;;19.00;4.23;;;12.90;99.90;;;;;;5036013;28;20812;-74
2024/03/31 08:02:00;;;;;;;19.50;3.57;;;13.00;99.90;;;;;;5042927;28;20430;-74
2024/03/31 08:04:46;;;;;;;31.77;4.60;;;13.00;99.90;;;;;;5039797;28;20939;-74
2024/03/31 08:07:30;;;;;;;17.50;4.30;;;13.10;99.90;;;;;;5040186;28;20979;-74
2024/03/31 08:10:16;;;;;;;22.63;4.23;;;13.10;99.90;;;;;;5041787;28;20513;-74
2024/03/31 08:13:01;;;;;;;21.40;4.37;;;13.10;99.90;;;;;;5037852;28;20425;-74
2024/03/31 08:15:47;;;;;;;23.77;4.57;;;13.20;99.90;;;;;;5037148;28;20430;-74
2024/03/31 08:18:35;;;;;;;15.67;4.10;;;13.30;99.90;;;;;;5045978;28;20541;-74
2024/03/31 08:21:20;;;;;;;16.90;3.27;;;13.40;99.90;;;;;;5045462;28;20453;-75
2024/03/31 08:24:06;;;;;;;18.43;4.13;;;13.50;99.90;;;;;;5046662;28;20430;-74
2024/03/31 08:26:51;;;;;;;22.87;3.60;;;13.60;99.90;;;;;;5043013;28;20921;-75
2024/03/31 08:29:37;;;;;;;20.90;3.67;;;13.60;99.90;;;;;;5045623;28;20548;-75
2024/03/31 08:32:21;;;;;;;16.50;3.27;;;13.70;99.90;;;;;;5046369;28;20485;-74
2024/03/31 08:35:08;;;;;;;15.53;3.73;;;13.80;99.90;;;;;;5045236;28;20839;-75
2024/03/31 08:37:53;;;;;;;15.80;3.33;;;13.90;99.90;;;;;;5045517;28;20425;-74
2024/03/31 08:40:39;;;;;;;21.50;6.00;;;14.00;99.90;;;;;;5046011;28;20422;-75
2024/03/31 08:43:27;;;;;;;15.10;4.20;;;14.00;99.90;;;;;;5043668;28;20777;-74
2024/03/31 08:46:13;;;;;;;26.10;5.33;;;14.20;99.90;;;;;;5048723;28;20471;-74
2024/03/31 08:48:59;;;;;;;26.57;5.53;;;14.30;99.90;;;;;;5044499;28;20832;-74
2024/03/31 08:51:45;;;;;;;17.20;4.80;;;14.40;99.90;;;;;;5046034;28;20475;-74
2024/03/31 08:54:31;;;;;;;14.23;2.97;;;14.40;99.90;;;;;;5043356;28;20593;-75
2024/03/31 08:57:15;;;;;;;18.20;2.53;;;14.40;99.90;;;;;;5042095;28;20429;-75
2024/03/31 09:00:03;;;;;;;17.20;2.80;;;14.40;99.90;;;;;;5067300;22;20447;-75
2024/03/31 09:02:48;;;;;;;29.60;3.30;;;14.40;99.90;;;;;;5068862;28;20565;-75
2024/03/31 09:05:34;;;;;;;23.73;3.70;;;14.40;99.90;;;;;;5065116;28;20413;-73
2024/03/31 09:08:20;;;;;;;12.00;2.43;;;14.40;99.90;;;;;;5071001;28;20439;-73
2024/03/31 09:11:07;;;;;;;15.60;3.47;;;14.50;99.90;;;;;;5069078;28;20967;-74
2024/03/31 09:13:52;;;;;;;24.57;2.63;;;14.60;99.90;;;;;;5070885;28;20400;-73
2024/03/31 09:16:37;;;;;;;9.80;2.23;;;14.80;99.90;;;;;;5072028;28;20437;-73
2024/03/31 09:19:22;;;;;;;13.87;2.60;;;14.80;99.90;;;;;;5065677;28;20420;-74
2024/03/31 09:22:08;;;;;;;15.17;2.40;;;14.90;99.90;;;;;;5071116;28;20430;-74
2024/03/31 09:24:54;;;;;;;11.63;2.30;;;15.10;99.90;;;;;;5070435;28;20417;-73
2024/03/31 09:27:40;;;;;;;21.53;3.03;;;15.30;99.90;;;;;;5070672;28;20470;-74
2024/03/31 09:30:24;;;;;;;18.73;3.00;;;15.50;99.90;;;;;;5071596;28;20424;-74
2024/03/31 09:33:10;;;;;;;12.63;2.10;;;15.60;99.90;;;;;;5071112;28;20887;-74
2024/03/31 09:35:56;;;;;;;14.83;2.37;;;15.70;99.90;;;;;;5068891;28;20431;-72
2024/03/31 09:38:41;;;;;;;16.00;2.67;;;15.80;99.90;;;;;;5066239;28;20871;-73
2024/03/31 09:41:28;;;;;;;17.17;3.00;;;16.00;99.90;;;;;;5065320;28;20523;-73
2024/03/31 09:44:13;;;;;;;16.77;3.73;;;16.10;99.90;;;;;;5068303;28;20973;-73
2024/03/31 09:46:59;;;;;;;22.27;4.10;;;16.30;99.90;;;;;;5065121;28;20984;-72
2024/03/31 09:49:52;;;;;;;27.50;3.70;;;16.40;99.90;;;;;;5069443;28;20486;-73
2024/03/31 09:52:42;;;;;;;19.87;2.83;;;16.50;99.90;;;;;;5065756;28;20513;-73
2024/03/31 09:55:29;;;;;;;13.07;3.43;;;16.60;99.90;;;;;;5068009;28;20451;-73
2024/03/31 09:58:19;;;;;;;10.67;3.43;;;16.70;99.90;;;;;;5067873;28;20441;-74
2024/03/31 10:01:07;;;;;;;22.20;3.30;;;16.80;99.90;;;;;;5065076;28;20442;-74
2024/03/31 10:03:56;;;;;;;24.73;2.83;;;16.80;99.90;;;;;;5066100;28;20402;-74
2024/03/31 10:06:43;;;;;;;13.73;2.20;;;17.00;99.90;;;;;;5062410;28;20461;-73
2024/03/31 10:09:29;;;;;;;17.77;2.87;;;17.00;99.90;;;;;;5068359;28;20409;-74
2024/03/31 10:12:15;;;;;;;23.47;4.20;;;17.10;99.90;;;;;;5066642;28;20582;-73
2024/03/31 10:15:03;;;;;;;19.23;3.43;;;17.20;99.90;;;;;;5069486;28;20489;-74
2024/03/31 10:17:51;;;;;;;19.17;3.57;;;17.20;99.90;;;;;;5068879;28;20901;-74
2024/03/31 10:20:36;;;;;;;30.73;2.97;;;17.30;99.90;;;;;;5067730;28;20895;-72
2024/03/31 10:23:22;;;;;;;13.80;3.10;;;17.40;99.90;;;;;;5066233;28;20512;-72
2024/03/31 10:26:08;;;;;;;13.33;2.40;;;17.50;99.90;;;;;;5067853;28;20804;-73
2024/03/31 10:28:58;;;;;;;14.43;2.50;;;17.70;99.90;;;;;;5068835;28;20976;-74
2024/03/31 10:31:44;;;;;;;15.83;2.63;;;17.80;99.90;;;;;;5069084;28;20429;-74
2024/03/31 10:34:29;;;;;;;21.13;4.27;;;18.10;99.90;;;;;;5069573;28;20431;-73
2024/03/31 10:37:15;;;;;;;28.93;3.10;;;18.20;99.90;;;;;;5067085;28;20578;-73
2024/03/31 10:40:04;;;;;;;20.93;3.00;;;18.30;99.90;;;;;;5068288;28;20779;-74
2024/03/31 10:42:48;;;;;;;21.33;3.10;;;18.50;93.70;;;;;;5067806;28;20410;-74
2024/03/31 10:45:34;;;;;;;18.63;3.50;;;18.60;96.60;;;;;;5063806;28;20430;-73
2024/03/31 10:48:21;;;;;;;19.27;2.90;;;18.60;88.60;;;;;;5065810;28;21078;-73
2024/03/31 10:51:12;;;;;;;32.13;4.93;;;18.50;90.70;;;;;;5064760;28;20494;-74
2024/03/31 10:53:57;;;;;;;15.40;3.53;;;18.60;89.70;;;;;;5064429;28;20430;-74
2024/03/31 10:56:44;;;;;;;21.47;3.00;;;18.60;89.10;;;;;;5065479;28;20505;-74
2024/03/31 10:59:29;;;;;;;25.40;5.63;;;18.70;80.80;;;;;;5069289;28;20901;-74
2024/03/31 11:02:17;;;;;;;15.80;3.10;;;18.80;81.50;;;;;;5070310;28;20394;-72
2024/03/31 11:05:05;;;;;;;25.20;3.67;;;19.00;78.30;;;;;;5064801;28;20411;-73
2024/03/31 11:07:54;;;;;;;12.63;2.80;;;19.10;77.50;;;;;;5061523;28;20925;-74
2024/03/31 11:10:38;;;;;;;24.27;4.33;;;19.20;64.30;;;;;;5068165;28;20431;-73
2024/03/31 11:13:28;;;;;;;30.77;4.57;;;19.30;60.40;;;;;;5071106;28;20466;-74
2024/03/31 11:16:19;;;;;;;16.73;3.13;;;19.30;63.10;;;;;;5069780;28;20421;-74
2024/03/31 11:19:06;;;;;;;32.90;4.33;;;19.20;55.60;;;;;;5068836;28;20411;-73
2024/03/31 11:21:57;;;;;;;21.37;3.43;;;19.10;58.60;;;;;;5069829;28;20564;-73
2024/03/31 11:24:43;;;;;;;18.60;3.23;;;18.90;61.50;;;;;;5068376;28;20427;-74
2024/03/31 11:27:28;;;;;;;21.47;3.43;;;18.90;68.90;;;;;;5068450;28;20968;-74
2024/03/31 11:30:14;;;;;;;26.87;3.50;;;18.90;65.30;;;;;;5069065;28;20438;-72
2024/03/31 11:33:02;;;;;;;24.20;3.40;;;19.00;68.20;;;;;;5066058;28;20419;-72
2024/03/31 11:35:49;;;;;;;24.20;3.03;;;19.00;65.30;;;;;;5063948;28;20432;-72
2024/03/31 11:38:36;;;;;;;28.67;4.10;;;19.00;64.10;;;;;;5070083;28;20445;-73
2024/03/31 11:41:22;;;;;;;19.57;2.80;;;19.00;69.30;;;;;;5066617;28;20434;-73
2024/03/31 11:44:08;;;;;;;16.20;2.83;;;18.90;65.20;;;;;;5065706;28;20561;-74
2024/03/31 11:46:53;;;;;;;16.93;3.67;;;19.10;71.30;;;;;;5062545;28;20438;-74
2024/03/31 11:49:38;;;;;;;30.97;4.57;;;19.20;66.00;;;;;;5068327;28;20421;-73
2024/03/31 11:52:23;;;;;;;28.73;3.00;;;19.40;64.80;;;;;;5063683;28;20598;-74
2024/03/31 11:55:10;;;;;;;17.97;3.33;;;19.50;60.30;;;;;;5064148;28;20452;-72
2024/03/31 11:57:55;;;;;;;14.23;2.60;;;19.50;57.00;;;;;;5063805;28;20423;-71
2024/03/31 12:00:49;;;;;;;27.23;2.53;;;19.50;52.80;;;;;;5058723;28;21009;-72
2024/03/31 12:03:34;;;;;;;20.13;2.87;;;19.50;63.30;;;;;;5057154;28;20977;-73
2024/03/31 12:06:20;;;;;;;30.47;4.13;;;19.70;64.70;;;;;;5064627;28;20945;-72
2024/03/31 12:09:05;;;;;;;22.43;3.10;;;19.80;56.60;;;;;;5066095;28;20459;-72
2024/03/31 12:11:53;;;;;;;17.10;3.10;;;19.90;40.80;;;;;;5064296;28;20502;-72
2024/03/31 12:14:38;;;;;;;28.43;3.47;;;19.90;42.30;;;;;;5067532;28;20829;-73
2024/03/31 12:17:23;;;;;;;23.00;2.80;;;19.70;39.20;;;;;;5067520;28;20416;-72
2024/03/31 12:20:09;;;;;;;22.80;3.23;;;19.50;40.80;;;;;;5066024;28;20962;-72
2024/03/31 12:22:55;;;;;;;32.93;10.20;;;19.40;43.40;;;;;;5067038;28;20876;-73
2024/03/31 12:25:41;;;;;;;28.90;6.37;;;19.30;44.10;;;;;;5064279;28;20964;-73
2024/03/31 12:28:27;;;;;;;22.33;3.17;;;19.30;46.10;;;;;;5065336;28;20546;-72
2024/03/31 12:31:13;;;;;;;22.03;3.30;;;19.10;46.00;;;;;;5066014;28;20468;-73
2024/03/31 12:33:58;;;;;;;17.50;3.30;;;19.10;47.30;;;;;;5067314;28;20987;-72
2024/03/31 12:36:44;;;;;;;18.33;3.00;;;19.10;46.80;;;;;;5063574;28;20529;-72
2024/03/31 12:39:29;;;;;;;15.20;2.50;;;19.20;54.60;;;;;;5065628;28;20559;-72
2024/03/31 12:42:15;;;;;;;18.23;2.90;;;19.30;47.10;;;;;;5064221;28;20423;-72
2024/03/31 12:45:02;;;;;;;12.93;2.30;;;19.30;48.90;;;;;;5065396;28;20501;-71
2024/03/31 12:47:48;;;;;;;16.93;2.57;;;19.30;50.60;;;;;;5061715;28;20845;-72
2024/03/31 12:50:33;;;;;;;12.80;2.70;;;19.30;60.60;;;;;;5062633;28;20490;-71
2024/03/31 12:53:19;;;;;;;23.40;2.40;;;19.30;53.70;;;;;;5061800;28;20539;-74
2024/03/31 12:56:05;;;;;;;10.63;2.10;;;19.30;53.50;;;;;;5062574;28;20845;-74
2024/03/31 12:58:52;;;;;;;21.77;3.13;;;19.30;57.30;;;;;;5059150;28;20504;-73
2024/03/31 13:01:38;;;;;;;20.20;4.30;;;19.30;54.60;;;;;;5057527;28;20480;-74
2024/03/31 13:04:23;;;;;;;24.23;2.57;;;19.20;59.90;;;;;;5063753;28;20546;-74
2024/03/31 13:07:09;;;;;;;11.97;2.30;;;19.40;59.40;;;;;;5062717;28;20521;-75
2024/03/31 13:10:02;;;;;;;21.53;2.80;;;19.80;57.90;;;;;;5059221;28;20580;-73
2024/03/31 13:12:47;;;;;;;21.17;3.07;;;20.20;53.50;;;;;;5064819;28;20457;-73
2024/03/31 13:15:33;;;;;;;20.00;2.63;;;20.40;51.10;;;;;;5061375;28;20429;-73
2024/03/31 13:18:19;;;;;;;17.90;3.43;;;20.80;58.50;;;;;;5066067;28;20426;-71
2024/03/31 13:21:06;;;;;;;32.30;4.67;;;21.10;51.30;;;;;;5064244;28;20480;-70
2024/03/31 13:23:51;;;;;;;14.93;3.20;;;21.30;42.00;;;;;;5061460;28;20500;-70
2024/03/31 13:26:36;;;;;;;26.23;3.37;;;21.30;44.50;;;;;;5060791;28;20453;-71
2024/03/31 13:29:21;;;;;;;24.93;2.87;;;21.00;40.60;;;;;;5061349;28;20457;-71
2024/03/31 13:32:07;;;;;;;21.53;3.40;;;20.70;40.30;;;;;;5064081;28;20497;-74
2024/03/31 13:34:54;;;;;;;17.10;2.90;;;20.60;46.40;;;;;;5066457;28;21253;-74
2024/03/31 13:37:38;;;;;;;18.70;5.00;;;20.50;44.80;;;;;;5070977;28;20436;-73
2024/03/31 13:40:24;;;;;;;17.87;3.20;;;20.50;47.00;;;;;;5068062;28;20435;-73
2024/03/31 13:43:09;;;;;;;13.67;2.40;;;20.50;47.30;;;;;;5069713;28;20653;-73
2024/03/31 13:45:55;;;;;;;16.23;3.40;;;20.40;47.50;;;;;;5071734;28;20455;-73
2024/03/31 13:48:39;;;;;;;18.23;2.70;;;20.30;45.90;;;;;;5071831;28;20517;-73
2024/03/31 13:51:26;;;;;;;10.83;2.30;;;20.10;48.20;;;;;;5069348;28;20419;-73
2024/03/31 13:54:11;;;;;;;20.00;2.43;;;20.00;49.00;;;;;;5071434;28;20445;-73
2024/03/31 13:56:57;;;;;;;11.47;2.60;;;19.90;44.40;;;;;;5069126;28;20587;-73
2024/03/31 13:59:41;;;;;;;17.87;2.60;;;19.80;44.40;;;;;;5062825;28;20544;-73
2024/03/31 14:02:27;;;;;;;24.37;3.37;;;19.60;47.10;;;;;;5069432;28;20503;-73
2024/03/31 14:05:12;;;;;;;17.80;3.70;;;19.50;51.00;;;;;;5064982;28;20419;-73
2024/03/31 14:07:59;;;;;;;21.03;2.77;;;19.40;45.30;;;;;;5071778;28;20486;-73
2024/03/31 14:10:44;;;;;;;17.73;2.50;;;19.30;45.80;;;;;;5068602;28;20438;-71
2024/03/31 14:13:29;;;;;;;16.53;2.90;;;19.30;45.00;;;;;;5069420;28;20906;-72